sensor_id;sensor_type;location;lat;lon;timestamp;pressure;altitude;pressure_sealevel;temperature;humidity
9822;BME280;4950;46.042;14.472;2023-09-12T00:00:06;97841.13;;;20.03;83.91
9822;BME280;4950;46.042;14.472;2023-09-12T00:02:32;97837.38;;;19.99;84.07
9822;BME280;4950;46.042;14.472;2023-09-12T00:04:59;97838.16;;;19.99;84.37
9822;BME280;4950;46.042;14.472;2023-09-12T00:07:26;97830.91;;;20.06;84.20
9822;BME280;4950;46.042;14.472;2023-09-12T00:09:54;97837.69;;;20.02;83.90
9822;BME280;4950;46.042;14.472;2023-09-12T00:12:23;97831.63;;;20.02;84.00
9822;BME280;4950;46.042;14.472;2023-09-12T00:14:50;97832.66;;;20.01;83.90
9822;BME280;4950;46.042;14.472;2023-09-12T00:17:17;97835.63;;;20.04;84.00
9822;BME280;4950;46.042;14.472;2023-09-12T00:19:44;97833.22;;;20.03;84.05
9822;BME280;4950;46.042;14.472;2023-09-12T00:22:10;97832.66;;;20.01;84.29
9822;BME280;4950;46.042;14.472;2023-09-12T00:24:37;97829.78;;;20.02;84.19
9822;BME280;4950;46.042;14.472;2023-09-12T00:27:05;97827.94;;;20.03;84.02
9822;BME280;4950;46.042;14.472;2023-09-12T00:29:32;97827.16;;;20.02;83.87
9822;BME280;4950;46.042;14.472;2023-09-12T00:31:59;97826.09;;;20.03;83.57
9822;BME280;4950;46.042;14.472;2023-09-12T00:34:26;97829.69;;;19.97;83.44
9822;BME280;4950;46.042;14.472;2023-09-12T00:36:53;97820.66;;;19.93;83.68
9822;BME280;4950;46.042;14.472;2023-09-12T00:39:19;97820.56;;;19.88;83.79
9822;BME280;4950;46.042;14.472;2023-09-12T00:41:46;97817.91;;;19.88;83.36
9822;BME280;4950;46.042;14.472;2023-09-12T00:44:14;97818.81;;;19.93;83.29
9822;BME280;4950;46.042;14.472;2023-09-12T00:46:41;97818.25;;;19.91;83.26
9822;BME280;4950;46.042;14.472;2023-09-12T00:49:11;97817.91;;;19.88;82.74
9822;BME280;4950;46.042;14.472;2023-09-12T00:51:39;97816.03;;;19.71;82.94
9822;BME280;4950;46.042;14.472;2023-09-12T00:54:06;97819.63;;;19.53;83.82
9822;BME280;4950;46.042;14.472;2023-09-12T00:56:33;97823.53;;;19.51;84.15
9822;BME280;4950;46.042;14.472;2023-09-12T00:59:01;97823.09;;;19.42;84.08
9822;BME280;4950;46.042;14.472;2023-09-12T01:01:29;97823.09;;;19.30;84.73
9822;BME280;4950;46.042;14.472;2023-09-12T01:03:58;97838.22;;;19.23;84.80
9822;BME280;4950;46.042;14.472;2023-09-12T01:06:25;97832.28;;;19.28;84.47
9822;BME280;4950;46.042;14.472;2023-09-12T01:08:53;97838.44;;;19.33;83.81
9822;BME280;4950;46.042;14.472;2023-09-12T01:11:22;97833.63;;;19.30;83.72
9822;BME280;4950;46.042;14.472;2023-09-12T01:13:49;97837.97;;;19.37;83.65
9822;BME280;4950;46.042;14.472;2023-09-12T01:16:15;97836.38;;;19.36;83.39
9822;BME280;4950;46.042;14.472;2023-09-12T01:18:43;97835.13;;;19.38;83.55
9822;BME280;4950;46.042;14.472;2023-09-12T01:21:21;97839.03;;;19.36;83.18
9822;BME280;4950;46.042;14.472;2023-09-12T01:24:04;97843.13;;;19.43;83.07
9822;BME280;4950;46.042;14.472;2023-09-12T01:26:47;97831.78;;;19.43;83.05
9822;BME280;4950;46.042;14.472;2023-09-12T01:29:18;97831.44;;;19.39;83.44
9822;BME280;4950;46.042;14.472;2023-09-12T01:31:46;97833.84;;;19.41;83.36
9822;BME280;4950;46.042;14.472;2023-09-12T01:34:13;97826.44;;;19.38;83.27
9822;BME280;4950;46.042;14.472;2023-09-12T01:36:40;97824.47;;;19.33;83.34
9822;BME280;4950;46.042;14.472;2023-09-12T01:39:07;97826.31;;;19.32;83.63
9822;BME280;4950;46.042;14.472;2023-09-12T01:41:39;97824.13;;;19.29;83.44
9822;BME280;4950;46.042;14.472;2023-09-12T01:44:08;97819.78;;;19.23;83.46
9822;BME280;4950;46.042;14.472;2023-09-12T01:46:37;97825.88;;;19.24;83.41
9822;BME280;4950;46.042;14.472;2023-09-12T01:49:05;97832.16;;;19.23;83.26
9822;BME280;4950;46.042;14.472;2023-09-12T01:51:33;97836.41;;;19.12;83.47
9822;BME280;4950;46.042;14.472;2023-09-12T01:54:01;97834.81;;;18.99;83.94
9822;BME280;4950;46.042;14.472;2023-09-12T01:56:29;97831.59;;;18.97;84.01
9822;BME280;4950;46.042;14.472;2023-09-12T01:58:56;97834.59;;;19.01;84.08
9822;BME280;4950;46.042;14.472;2023-09-12T02:01:23;97828.41;;;19.07;83.83
9822;BME280;4950;46.042;14.472;2023-09-12T02:03:53;97828.97;;;19.09;83.62
9822;BME280;4950;46.042;14.472;2023-09-12T02:06:20;97831.59;;;19.09;83.44
9822;BME280;4950;46.042;14.472;2023-09-12T02:08:47;97826.69;;;19.12;83.33
9822;BME280;4950;46.042;14.472;2023-09-12T02:11:13;97817.44;;;19.10;83.65
9822;BME280;4950;46.042;14.472;2023-09-12T02:13:40;97821.41;;;19.12;82.91
9822;BME280;4950;46.042;14.472;2023-09-12T02:16:07;97819.59;;;19.13;82.73
9822;BME280;4950;46.042;14.472;2023-09-12T02:18:33;97819.13;;;19.16;82.33
9822;BME280;4950;46.042;14.472;2023-09-12T02:21:01;97814.09;;;19.03;82.86
9822;BME280;4950;46.042;14.472;2023-09-12T02:23:28;97814.56;;;19.00;83.02
9822;BME280;4950;46.042;14.472;2023-09-12T02:25:55;97818.00;;;19.00;82.90
9822;BME280;4950;46.042;14.472;2023-09-12T02:28:22;97814.00;;;18.98;83.11
9822;BME280;4950;46.042;14.472;2023-09-12T02:30:50;97815.03;;;18.97;83.23
9822;BME280;4950;46.042;14.472;2023-09-12T02:33:16;97819.72;;;18.94;83.45
9822;BME280;4950;46.042;14.472;2023-09-12T02:35:43;97826.00;;;18.93;83.35
9822;BME280;4950;46.042;14.472;2023-09-12T02:38:11;97819.16;;;18.92;83.40
9822;BME280;4950;46.042;14.472;2023-09-12T02:40:38;97814.91;;;18.91;83.66
9822;BME280;4950;46.042;14.472;2023-09-12T02:43:04;97811.00;;;18.94;83.19
9822;BME280;4950;46.042;14.472;2023-09-12T02:45:33;97807.00;;;18.91;83.50
9822;BME280;4950;46.042;14.472;2023-09-12T02:48:00;97809.31;;;18.88;83.68
9822;BME280;4950;46.042;14.472;2023-09-12T02:50:26;97811.59;;;18.84;84.11
9822;BME280;4950;46.042;14.472;2023-09-12T02:52:53;97810.22;;;18.82;84.32
9822;BME280;4950;46.042;14.472;2023-09-12T02:55:38;97814.09;;;18.79;84.55
9822;BME280;4950;46.042;14.472;2023-09-12T02:58:05;97812.06;;;18.81;84.75
9822;BME280;4950;46.042;14.472;2023-09-12T03:00:32;97813.97;;;18.74;85.09
9822;BME280;4950;46.042;14.472;2023-09-12T03:02:59;97812.03;;;18.69;84.66
9822;BME280;4950;46.042;14.472;2023-09-12T03:05:25;97820.72;;;18.70;84.75
9822;BME280;4950;46.042;14.472;2023-09-12T03:07:52;97817.06;;;18.59;84.51
9822;BME280;4950;46.042;14.472;2023-09-12T03:10:19;97812.66;;;18.41;85.31
9822;BME280;4950;46.042;14.472;2023-09-12T03:12:47;97814.63;;;18.34;85.62
9822;BME280;4950;46.042;14.472;2023-09-12T03:15:13;97814.25;;;18.30;85.96
9822;BME280;4950;46.042;14.472;2023-09-12T03:17:40;97809.44;;;18.27;86.60
9822;BME280;4950;46.042;14.472;2023-09-12T03:20:07;97820.31;;;18.31;86.33
9822;BME280;4950;46.042;14.472;2023-09-12T03:22:34;97829.56;;;18.33;85.98
9822;BME280;4950;46.042;14.472;2023-09-12T03:25:03;97819.41;;;18.37;86.25
9822;BME280;4950;46.042;14.472;2023-09-12T03:27:31;97823.06;;;18.36;86.34
9822;BME280;4950;46.042;14.472;2023-09-12T03:29:59;97816.69;;;18.44;85.66
9822;BME280;4950;46.042;14.472;2023-09-12T03:32:26;97813.38;;;18.48;85.60
9822;BME280;4950;46.042;14.472;2023-09-12T03:34:52;97812.00;;;18.46;85.67
9822;BME280;4950;46.042;14.472;2023-09-12T03:37:19;97816.69;;;18.44;85.64
9822;BME280;4950;46.042;14.472;2023-09-12T03:39:47;97813.81;;;18.45;85.74
9822;BME280;4950;46.042;14.472;2023-09-12T03:42:13;97809.69;;;18.38;86.29
9822;BME280;4950;46.042;14.472;2023-09-12T03:44:40;97805.59;;;18.42;86.68
9822;BME280;4950;46.042;14.472;2023-09-12T03:47:08;97805.81;;;18.40;87.14
9822;BME280;4950;46.042;14.472;2023-09-12T03:49:35;97810.84;;;18.42;87.56
9822;BME280;4950;46.042;14.472;2023-09-12T03:52:01;97811.28;;;18.39;87.60
9822;BME280;4950;46.042;14.472;2023-09-12T03:54:29;97813.34;;;18.37;88.42
9822;BME280;4950;46.042;14.472;2023-09-12T03:56:56;97813.56;;;18.35;88.43
9822;BME280;4950;46.042;14.472;2023-09-12T03:59:22;97802.34;;;18.28;89.08
9822;BME280;4950;46.042;14.472;2023-09-12T04:01:49;97804.66;;;18.24;89.97
9822;BME280;4950;46.042;14.472;2023-09-12T04:04:17;97808.50;;;18.22;90.49
9822;BME280;4950;46.042;14.472;2023-09-12T04:06:44;97815.75;;;18.26;91.06
9822;BME280;4950;46.042;14.472;2023-09-12T04:09:12;97807.94;;;18.20;90.99
9822;BME280;4950;46.042;14.472;2023-09-12T04:11:38;97810.00;;;18.18;91.27
9822;BME280;4950;46.042;14.472;2023-09-12T04:14:05;97812.19;;;18.21;90.73
9822;BME280;4950;46.042;14.472;2023-09-12T04:16:32;97813.66;;;18.17;89.23
9822;BME280;4950;46.042;14.472;2023-09-12T04:18:59;97824.81;;;18.12;88.94
9822;BME280;4950;46.042;14.472;2023-09-12T04:21:27;97825.50;;;18.07;88.95
9822;BME280;4950;46.042;14.472;2023-09-12T04:23:53;97825.50;;;18.07;88.40
9822;BME280;4950;46.042;14.472;2023-09-12T04:26:20;97825.28;;;18.09;87.87
9822;BME280;4950;46.042;14.472;2023-09-12T04:28:47;97833.91;;;17.98;87.39
9822;BME280;4950;46.042;14.472;2023-09-12T04:31:14;97827.50;;;17.93;89.04
9822;BME280;4950;46.042;14.472;2023-09-12T04:33:41;97830.34;;;17.92;89.33
9822;BME280;4950;46.042;14.472;2023-09-12T04:36:07;97843.94;;;17.89;89.91
9822;BME280;4950;46.042;14.472;2023-09-12T04:38:35;97841.06;;;17.90;89.63
9822;BME280;4950;46.042;14.472;2023-09-12T04:41:03;97842.53;;;17.86;88.79
9822;BME280;4950;46.042;14.472;2023-09-12T04:43:30;97845.38;;;17.85;88.65
9822;BME280;4950;46.042;14.472;2023-09-12T04:45:57;97842.03;;;17.77;88.88
9822;BME280;4950;46.042;14.472;2023-09-12T04:48:24;97850.22;;;17.69;89.67
9822;BME280;4950;46.042;14.472;2023-09-12T04:50:50;97843.19;;;17.63;90.06
9822;BME280;4950;46.042;14.472;2023-09-12T04:53:17;97849.47;;;17.62;91.16
9822;BME280;4950;46.042;14.472;2023-09-12T04:55:45;97844.22;;;17.62;91.78
9822;BME280;4950;46.042;14.472;2023-09-12T04:58:12;97844.16;;;17.69;91.15
9822;BME280;4950;46.042;14.472;2023-09-12T05:00:39;97846.78;;;17.69;90.83
9822;BME280;4950;46.042;14.472;2023-09-12T05:03:06;97851.22;;;17.68;91.04
9822;BME280;4950;46.042;14.472;2023-09-12T05:05:34;97842.78;;;17.66;91.83
9822;BME280;4950;46.042;14.472;2023-09-12T05:08:02;97852.69;;;17.64;92.91
9822;BME280;4950;46.042;14.472;2023-09-12T05:10:29;97854.22;;;17.53;93.08
9822;BME280;4950;46.042;14.472;2023-09-12T05:12:57;97850.06;;;17.46;93.69
9822;BME280;4950;46.042;14.472;2023-09-12T05:15:23;97852.78;;;17.39;94.05
9822;BME280;4950;46.042;14.472;2023-09-12T05:17:50;97851.38;;;17.36;94.60
9822;BME280;4950;46.042;14.472;2023-09-12T05:20:17;97850.94;;;17.40;95.64
9822;BME280;4950;46.042;14.472;2023-09-12T05:22:43;97849.94;;;17.41;95.80
9822;BME280;4950;46.042;14.472;2023-09-12T05:25:10;97852.97;;;17.37;95.86
9822;BME280;4950;46.042;14.472;2023-09-12T05:27:37;97849.84;;;17.47;95.47
9822;BME280;4950;46.042;14.472;2023-09-12T05:30:06;97856.03;;;17.53;94.78
9822;BME280;4950;46.042;14.472;2023-09-12T05:32:33;97856.25;;;17.51;94.69
9822;BME280;4950;46.042;14.472;2023-09-12T05:35:02;97862.53;;;17.50;94.94
9822;BME280;4950;46.042;14.472;2023-09-12T05:37:28;97860.50;;;17.52;95.20
9822;BME280;4950;46.042;14.472;2023-09-12T05:39:55;97855.63;;;17.56;94.51
9822;BME280;4950;46.042;14.472;2023-09-12T05:42:22;97861.00;;;17.61;94.32
9822;BME280;4950;46.042;14.472;2023-09-12T05:44:49;97860.56;;;17.64;94.50
9822;BME280;4950;46.042;14.472;2023-09-12T05:47:20;97862.97;;;17.66;93.95
9822;BME280;4950;46.042;14.472;2023-09-12T05:49:46;97863.41;;;17.63;94.00
9822;BME280;4950;46.042;14.472;2023-09-12T05:52:13;97870.91;;;17.59;94.72
9822;BME280;4950;46.042;14.472;2023-09-12T05:54:41;97871.88;;;17.65;94.91
9822;BME280;4950;46.042;14.472;2023-09-12T05:57:08;97868.81;;;17.68;94.86
9822;BME280;4950;46.042;14.472;2023-09-12T05:59:37;97880.31;;;17.67;95.58
9822;BME280;4950;46.042;14.472;2023-09-12T06:02:05;97870.97;;;17.71;95.71
9822;BME280;4950;46.042;14.472;2023-09-12T06:04:35;97867.13;;;17.73;96.09
9822;BME280;4950;46.042;14.472;2023-09-12T06:07:02;97863.56;;;17.86;95.78
9822;BME280;4950;46.042;14.472;2023-09-12T06:09:29;97857.28;;;17.87;95.52
9822;BME280;4950;46.042;14.472;2023-09-12T06:11:56;97850.56;;;17.91;95.74
9822;BME280;4950;46.042;14.472;2023-09-12T06:14:22;97859.81;;;17.94;95.51
9822;BME280;4950;46.042;14.472;2023-09-12T06:16:49;97857.56;;;17.98;95.60
9822;BME280;4950;46.042;14.472;2023-09-12T06:19:16;97856.56;;;17.99;95.62
9822;BME280;4950;46.042;14.472;2023-09-12T06:21:46;97859.66;;;18.07;95.31
9822;BME280;4950;46.042;14.472;2023-09-12T06:24:14;97863.66;;;18.10;95.14
9822;BME280;4950;46.042;14.472;2023-09-12T06:26:42;97867.22;;;18.15;94.64
9822;BME280;4950;46.042;14.472;2023-09-12T06:29:09;97873.28;;;18.16;94.43
9822;BME280;4950;46.042;14.472;2023-09-12T06:31:36;97868.25;;;18.14;94.62
9822;BME280;4950;46.042;14.472;2023-09-12T06:34:03;97872.44;;;18.04;94.29
9822;BME280;4950;46.042;14.472;2023-09-12T06:36:29;97875.16;;;17.97;94.73
9822;BME280;4950;46.042;14.472;2023-09-12T06:38:58;97878.78;;;17.96;95.08
9822;BME280;4950;46.042;14.472;2023-09-12T06:41:25;97882.00;;;17.98;95.15
9822;BME280;4950;46.042;14.472;2023-09-12T06:43:53;97871.63;;;18.03;95.20
9822;BME280;4950;46.042;14.472;2023-09-12T06:46:22;97869.16;;;18.08;94.99
9822;BME280;4950;46.042;14.472;2023-09-12T06:48:49;97873.16;;;18.11;95.43
9822;BME280;4950;46.042;14.472;2023-09-12T06:51:16;97871.09;;;18.13;95.58
9822;BME280;4950;46.042;14.472;2023-09-12T06:53:43;97873.06;;;18.18;95.81
9822;BME280;4950;46.042;14.472;2023-09-12T06:56:11;97872.50;;;18.27;95.56
9822;BME280;4950;46.042;14.472;2023-09-12T06:58:38;97868.53;;;18.37;95.18
9822;BME280;4950;46.042;14.472;2023-09-12T07:01:06;97871.53;;;18.40;94.67
9822;BME280;4950;46.042;14.472;2023-09-12T07:03:33;97881.16;;;18.46;94.49
9822;BME280;4950;46.042;14.472;2023-09-12T07:06:01;97876.69;;;18.47;93.86
9822;BME280;4950;46.042;14.472;2023-09-12T07:08:29;97878.94;;;18.43;94.23
9822;BME280;4950;46.042;14.472;2023-09-12T07:10:56;97883.19;;;18.44;94.63
9822;BME280;4950;46.042;14.472;2023-09-12T07:13:25;97888.81;;;18.48;93.80
9822;BME280;4950;46.042;14.472;2023-09-12T07:15:52;97890.19;;;18.50;93.93
9822;BME280;4950;46.042;14.472;2023-09-12T07:18:18;97886.66;;;18.57;93.36
9822;BME280;4950;46.042;14.472;2023-09-12T07:20:45;97890.22;;;18.62;93.23
9822;BME280;4950;46.042;14.472;2023-09-12T07:23:12;97886.47;;;18.70;93.17
9822;BME280;4950;46.042;14.472;2023-09-12T07:25:39;97884.19;;;18.73;93.00
9822;BME280;4950;46.042;14.472;2023-09-12T07:28:07;97886.00;;;18.73;93.03
9822;BME280;4950;46.042;14.472;2023-09-12T07:30:35;97889.53;;;18.79;93.20
9822;BME280;4950;46.042;14.472;2023-09-12T07:33:03;97892.69;;;18.87;92.97
9822;BME280;4950;46.042;14.472;2023-09-12T07:35:30;97898.66;;;18.94;92.30
9822;BME280;4950;46.042;14.472;2023-09-12T07:37:57;97892.34;;;18.96;91.78
9822;BME280;4950;46.042;14.472;2023-09-12T07:40:23;97898.66;;;18.94;91.57
9822;BME280;4950;46.042;14.472;2023-09-12T07:42:50;97891.09;;;18.98;92.01
9822;BME280;4950;46.042;14.472;2023-09-12T07:45:17;97893.16;;;19.08;92.06
9822;BME280;4950;46.042;14.472;2023-09-12T07:47:47;97885.72;;;19.17;91.95
9822;BME280;4950;46.042;14.472;2023-09-12T07:50:15;97885.72;;;19.28;91.51
9822;BME280;4950;46.042;14.472;2023-09-12T07:52:43;97894.63;;;19.39;91.64
9822;BME280;4950;46.042;14.472;2023-09-12T07:55:10;97894.28;;;19.47;90.95
9822;BME280;4950;46.042;14.472;2023-09-12T07:57:36;97894.50;;;19.58;90.46
9822;BME280;4950;46.042;14.472;2023-09-12T08:00:05;97895.75;;;19.67;89.84
9822;BME280;4950;46.042;14.472;2023-09-12T08:02:36;97890.72;;;19.77;89.50
9822;BME280;4950;46.042;14.472;2023-09-12T08:05:05;97886.91;;;19.85;88.59
9822;BME280;4950;46.042;14.472;2023-09-12T08:07:31;97896.63;;;19.96;88.56
9822;BME280;4950;46.042;14.472;2023-09-12T08:09:58;97894.75;;;20.08;88.41
9822;BME280;4950;46.042;14.472;2023-09-12T08:12:26;97888.63;;;20.20;87.90
9822;BME280;4950;46.042;14.472;2023-09-12T08:14:54;97887.06;;;20.36;86.85
9822;BME280;4950;46.042;14.472;2023-09-12T08:17:22;97892.59;;;20.51;87.01
9822;BME280;4950;46.042;14.472;2023-09-12T08:19:49;97886.50;;;20.62;85.43
9822;BME280;4950;46.042;14.472;2023-09-12T08:22:17;97880.25;;;20.68;85.10
9822;BME280;4950;46.042;14.472;2023-09-12T08:24:44;97877.88;;;20.84;85.32
9822;BME280;4950;46.042;14.472;2023-09-12T08:27:11;97880.16;;;20.97;84.67
9822;BME280;4950;46.042;14.472;2023-09-12T08:29:39;97880.06;;;21.09;83.71
9822;BME280;4950;46.042;14.472;2023-09-12T08:32:06;97883.91;;;21.18;83.22
9822;BME280;4950;46.042;14.472;2023-09-12T08:34:33;97881.00;;;21.37;82.61
9822;BME280;4950;46.042;14.472;2023-09-12T08:37:00;97883.28;;;21.50;81.43
9822;BME280;4950;46.042;14.472;2023-09-12T08:39:36;97871.09;;;21.66;80.76
9822;BME280;4950;46.042;14.472;2023-09-12T08:42:06;97878.06;;;21.77;80.83
9822;BME280;4950;46.042;14.472;2023-09-12T08:44:36;97879.66;;;22.00;80.07
9822;BME280;4950;46.042;14.472;2023-09-12T08:47:03;97879.06;;;22.20;77.97
9822;BME280;4950;46.042;14.472;2023-09-12T08:49:33;97875.56;;;22.37;76.75
9822;BME280;4950;46.042;14.472;2023-09-12T08:52:01;97876.78;;;22.56;76.24
9822;BME280;4950;46.042;14.472;2023-09-12T08:54:30;97874.53;;;22.70;75.44
9822;BME280;4950;46.042;14.472;2023-09-12T08:56:57;97869.34;;;22.85;74.23
9822;BME280;4950;46.042;14.472;2023-09-12T08:59:24;97861.50;;;23.01;72.83
9822;BME280;4950;46.042;14.472;2023-09-12T09:01:53;97851.84;;;23.17;72.33
9822;BME280;4950;46.042;14.472;2023-09-12T09:04:22;97867.28;;;23.30;71.94
9822;BME280;4950;46.042;14.472;2023-09-12T09:06:52;97862.53;;;23.37;71.03
9822;BME280;4950;46.042;14.472;2023-09-12T09:09:20;97866.28;;;23.46;71.33
9822;BME280;4950;46.042;14.472;2023-09-12T09:11:49;97869.50;;;23.59;69.78
9822;BME280;4950;46.042;14.472;2023-09-12T09:14:15;97861.34;;;23.65;69.86
9822;BME280;4950;46.042;14.472;2023-09-12T09:16:42;97859.81;;;23.80;68.54
9822;BME280;4950;46.042;14.472;2023-09-12T09:19:09;97858.78;;;23.86;68.38
9822;BME280;4950;46.042;14.472;2023-09-12T09:21:38;97863.59;;;23.99;68.09
9822;BME280;4950;46.042;14.472;2023-09-12T09:24:07;97859.41;;;24.24;65.87
9822;BME280;4950;46.042;14.472;2023-09-12T09:26:45;97863.66;;;24.30;66.32
9822;BME280;4950;46.042;14.472;2023-09-12T09:29:16;97857.56;;;24.45;66.77
9822;BME280;4950;46.042;14.472;2023-09-12T09:31:44;97854.13;;;24.60;66.23
9822;BME280;4950;46.042;14.472;2023-09-12T09:34:12;97855.19;;;24.85;65.66
9822;BME280;4950;46.042;14.472;2023-09-12T09:36:42;97845.06;;;25.02;64.60
9822;BME280;4950;46.042;14.472;2023-09-12T09:39:09;97853.25;;;25.21;64.24
9822;BME280;4950;46.042;14.472;2023-09-12T09:41:37;97854.28;;;25.46;62.92
9822;BME280;4950;46.042;14.472;2023-09-12T09:44:04;97856.84;;;25.66;62.54
9822;BME280;4950;46.042;14.472;2023-09-12T09:46:33;97854.88;;;25.87;62.30
9822;BME280;4950;46.042;14.472;2023-09-12T09:48:59;97849.22;;;26.04;60.88
9822;BME280;4950;46.042;14.472;2023-09-12T09:51:26;97845.19;;;26.12;58.61
9822;BME280;4950;46.042;14.472;2023-09-12T09:53:53;97840.94;;;26.11;59.19
9822;BME280;4950;46.042;14.472;2023-09-12T09:56:24;97844.91;;;26.13;59.52
9822;BME280;4950;46.042;14.472;2023-09-12T09:58:52;97841.91;;;26.25;57.97
9822;BME280;4950;46.042;14.472;2023-09-12T10:01:21;97845.88;;;26.28;58.26
9822;BME280;4950;46.042;14.472;2023-09-12T10:03:51;97845.84;;;26.33;58.00
9822;BME280;4950;46.042;14.472;2023-09-12T10:06:19;97845.78;;;26.38;57.52
9822;BME280;4950;46.042;14.472;2023-09-12T10:08:49;97845.84;;;26.33;59.02
9822;BME280;4950;46.042;14.472;2023-09-12T10:11:17;97846.97;;;26.27;59.15
9822;BME280;4950;46.042;14.472;2023-09-12T10:13:46;97831.69;;;26.37;59.40
9822;BME280;4950;46.042;14.472;2023-09-12T10:16:16;97834.09;;;26.39;59.13
9822;BME280;4950;46.042;14.472;2023-09-12T10:18:49;97839.84;;;26.51;58.81
9822;BME280;4950;46.042;14.472;2023-09-12T10:21:24;97835.19;;;26.67;59.47
9822;BME280;4950;46.042;14.472;2023-09-12T10:23:54;97825.44;;;26.87;58.91
9822;BME280;4950;46.042;14.472;2023-09-12T10:26:23;97820.69;;;27.08;58.59
9822;BME280;4950;46.042;14.472;2023-09-12T10:28:51;97825.53;;;27.30;58.36
9822;BME280;4950;46.042;14.472;2023-09-12T10:31:19;97818.78;;;27.37;58.06
9822;BME280;4950;46.042;14.472;2023-09-12T10:33:46;97824.72;;;27.53;58.42
9822;BME280;4950;46.042;14.472;2023-09-12T10:36:17;97818.13;;;27.70;57.60
9822;BME280;4950;46.042;14.472;2023-09-12T10:38:47;97820.41;;;27.76;56.71
9822;BME280;4950;46.042;14.472;2023-09-12T10:41:15;97814.00;;;27.77;56.24
9822;BME280;4950;46.042;14.472;2023-09-12T10:43:44;97821.47;;;28.00;55.77
9822;BME280;4950;46.042;14.472;2023-09-12T10:46:15;97815.94;;;28.29;54.73
9822;BME280;4950;46.042;14.472;2023-09-12T10:48:42;97821.78;;;28.31;52.79
9822;BME280;4950;46.042;14.472;2023-09-12T10:51:10;97819.84;;;28.36;53.01
9822;BME280;4950;46.042;14.472;2023-09-12T10:53:37;97814.53;;;28.50;52.36
9822;BME280;4950;46.042;14.472;2023-09-12T10:56:17;97802.34;;;28.63;50.80
9822;BME280;4950;46.042;14.472;2023-09-12T10:59:11;97810.25;;;28.68;50.74
9822;BME280;4950;46.042;14.472;2023-09-12T11:01:40;97812.22;;;28.77;51.57
9822;BME280;4950;46.042;14.472;2023-09-12T11:04:29;97805.59;;;28.74;50.91
9822;BME280;4950;46.042;14.472;2023-09-12T11:06:58;97810.66;;;28.75;50.78
9822;BME280;4950;46.042;14.472;2023-09-12T11:09:26;97811.63;;;28.66;50.29
9822;BME280;4950;46.042;14.472;2023-09-12T11:11:57;97799.19;;;28.75;50.85
9822;BME280;4950;46.042;14.472;2023-09-12T11:14:25;97813.84;;;28.91;50.19
9822;BME280;4950;46.042;14.472;2023-09-12T11:17:22;97800.19;;;28.93;51.05
9822;BME280;4950;46.042;14.472;2023-09-12T11:19:50;97804.84;;;29.01;50.79
9822;BME280;4950;46.042;14.472;2023-09-12T11:22:23;97804.13;;;29.09;50.89
9822;BME280;4950;46.042;14.472;2023-09-12T11:24:50;97800.22;;;29.21;49.82
9822;BME280;4950;46.042;14.472;2023-09-12T11:27:18;97803.16;;;29.47;49.51
9822;BME280;4950;46.042;14.472;2023-09-12T11:29:45;97791.13;;;29.58;49.36
9822;BME280;4950;46.042;14.472;2023-09-12T11:32:25;97791.63;;;29.60;48.64
9822;BME280;4950;46.042;14.472;2023-09-12T11:34:52;97793.22;;;29.75;48.87
9822;BME280;4950;46.042;14.472;2023-09-12T11:37:23;97792.78;;;29.82;47.62
9822;BME280;4950;46.042;14.472;2023-09-12T11:39:50;97791.38;;;29.98;47.75
9822;BME280;4950;46.042;14.472;2023-09-12T11:42:19;97787.78;;;30.25;46.90
9822;BME280;4950;46.042;14.472;2023-09-12T11:44:48;97779.56;;;30.44;47.01
9822;BME280;4950;46.042;14.472;2023-09-12T11:47:15;97778.72;;;30.66;45.77
9822;BME280;4950;46.042;14.472;2023-09-12T11:49:42;97776.59;;;30.86;46.23
9822;BME280;4950;46.042;14.472;2023-09-12T11:52:10;97777.06;;;31.19;46.14
9822;BME280;4950;46.042;14.472;2023-09-12T11:54:38;97780.31;;;30.99;44.03
9822;BME280;4950;46.042;14.472;2023-09-12T11:57:06;97773.44;;;30.84;44.06
9822;BME280;4950;46.042;14.472;2023-09-12T11:59:38;97773.03;;;30.90;45.64
9822;BME280;4950;46.042;14.472;2023-09-12T12:02:06;97777.31;;;31.00;43.69
9822;BME280;4950;46.042;14.472;2023-09-12T12:04:33;97767.06;;;31.02;43.79
9822;BME280;4950;46.042;14.472;2023-09-12T12:07:01;97771.81;;;31.05;43.43
9822;BME280;4950;46.042;14.472;2023-09-12T12:09:28;97770.81;;;30.93;42.23
9822;BME280;4950;46.042;14.472;2023-09-12T12:12:03;97774.16;;;30.98;41.42
9822;BME280;4950;46.042;14.472;2023-09-12T12:14:33;97763.44;;;31.07;42.54
9822;BME280;4950;46.042;14.472;2023-09-12T12:17:07;97767.25;;;31.15;42.84
9822;BME280;4950;46.042;14.472;2023-09-12T12:19:35;97765.84;;;31.17;42.04
9822;BME280;4950;46.042;14.472;2023-09-12T12:22:03;97762.06;;;31.18;42.33
9822;BME280;4950;46.042;14.472;2023-09-12T12:24:36;97766.97;;;31.34;42.36
9822;BME280;4950;46.042;14.472;2023-09-12T12:27:03;97761.50;;;31.47;42.55
9822;BME280;4950;46.042;14.472;2023-09-12T12:29:30;97761.19;;;31.58;42.22
9822;BME280;4950;46.042;14.472;2023-09-12T12:31:59;97772.09;;;31.70;42.07
9822;BME280;4950;46.042;14.472;2023-09-12T12:34:28;97767.84;;;31.60;42.09
9822;BME280;4950;46.042;14.472;2023-09-12T12:36:54;97763.03;;;31.31;42.23
9822;BME280;4950;46.042;14.472;2023-09-12T12:39:22;97767.06;;;31.02;43.06
9822;BME280;4950;46.042;14.472;2023-09-12T12:41:51;97767.66;;;30.99;43.21
9822;BME280;4950;46.042;14.472;2023-09-12T12:44:18;97767.53;;;31.04;43.42
9822;BME280;4950;46.042;14.472;2023-09-12T12:46:48;97755.06;;;31.00;43.15
9822;BME280;4950;46.042;14.472;2023-09-12T12:49:15;97757.75;;;31.08;43.32
9822;BME280;4950;46.042;14.472;2023-09-12T12:51:45;97751.81;;;31.29;42.98
9822;BME280;4950;46.042;14.472;2023-09-12T12:54:11;97754.56;;;31.46;41.70
9822;BME280;4950;46.042;14.472;2023-09-12T12:56:39;97749.84;;;31.52;41.79
9822;BME280;4950;46.042;14.472;2023-09-12T12:59:07;97747.44;;;31.59;40.93
9822;BME280;4950;46.042;14.472;2023-09-12T13:01:34;97748.88;;;31.65;41.59
9822;BME280;4950;46.042;14.472;2023-09-12T13:04:01;97743.34;;;31.71;42.25
9822;BME280;4950;46.042;14.472;2023-09-12T13:06:30;97750.31;;;31.80;41.08
9822;BME280;4950;46.042;14.472;2023-09-12T13:09:03;97745.56;;;31.77;41.06
9822;BME280;4950;46.042;14.472;2023-09-12T13:11:31;97736.84;;;31.89;41.75
9822;BME280;4950;46.042;14.472;2023-09-12T13:13:58;97750.75;;;31.91;40.57